sensor_id;sensor_type;location;lat;lon;timestamp;pressure;altitude;pressure_sealevel;temperature;humidity
65054;BME280;51639;47.828;35.038;2023-07-22T00:01:53;100268.09;;;24.58;84.19
65054;BME280;51639;47.828;35.038;2023-07-22T00:16:55;100270.94;;;24.52;85.41
65054;BME280;51639;47.828;35.038;2023-07-22T00:31:57;100278.75;;;24.48;85.34
65054;BME280;51639;47.828;35.038;2023-07-22T00:46:59;100302.75;;;24.40;85.78
65054;BME280;51639;47.828;35.038;2023-07-22T01:02:02;100295.69;;;24.33;86.61
65054;BME280;51639;47.828;35.038;2023-07-22T01:17:06;100282.59;;;24.23;86.23
65054;BME280;51639;47.828;35.038;2023-07-22T01:32:08;100267.75;;;24.09;86.89
65054;BME280;51639;47.828;35.038;2023-07-22T01:47:11;100278.63;;;23.79;91.51
65054;BME280;51639;47.828;35.038;2023-07-22T02:02:13;100281.66;;;23.70;91.93
65054;BME280;51639;47.828;35.038;2023-07-22T02:17:15;100308.84;;;23.99;90.29
65054;BME280;51639;47.828;35.038;2023-07-22T02:32:17;100290.69;;;24.09;90.38
65054;BME280;51639;47.828;35.038;2023-07-22T02:47:19;100283.16;;;24.04;91.58
65054;BME280;51639;47.828;35.038;2023-07-22T03:02:21;100339.84;;;24.26;92.65
65054;BME280;51639;47.828;35.038;2023-07-22T03:17:23;100327.94;;;24.53;92.09
65054;BME280;51639;47.828;35.038;2023-07-22T03:32:26;100313.88;;;24.92;90.43
65054;BME280;51639;47.828;35.038;2023-07-22T03:47:28;100316.03;;;25.22;90.41
65054;BME280;51639;47.828;35.038;2023-07-22T04:02:30;100325.72;;;25.80;88.74
65054;BME280;51639;47.828;35.038;2023-07-22T04:17:32;100314.69;;;26.48;88.56
65054;BME280;51639;47.828;35.038;2023-07-22T04:32:34;100333.22;;;27.07;88.22
65054;BME280;51639;47.828;35.038;2023-07-22T04:47:37;100334.38;;;27.49;88.00
65054;BME280;51639;47.828;35.038;2023-07-22T05:02:40;100311.38;;;28.07;86.31
65054;BME280;51639;47.828;35.038;2023-07-22T05:17:43;100321.91;;;28.67;77.30
65054;BME280;51639;47.828;35.038;2023-07-22T05:32:45;100298.69;;;29.74;74.91
65054;BME280;51639;47.828;35.038;2023-07-22T05:47:47;100277.16;;;29.90;70.28
65054;BME280;51639;47.828;35.038;2023-07-22T06:02:49;100294.00;;;29.98;67.85
65054;BME280;51639;47.828;35.038;2023-07-22T06:17:51;100290.97;;;30.45;62.61
65054;BME280;51639;47.828;35.038;2023-07-22T06:32:53;100298.63;;;30.88;60.68
65054;BME280;51639;47.828;35.038;2023-07-22T06:47:55;100306.22;;;31.46;55.85
65054;BME280;51639;47.828;35.038;2023-07-22T07:02:58;100311.13;;;30.87;55.21
65054;BME280;51639;47.828;35.038;2023-07-22T07:18:01;100276.34;;;31.79;53.71
65054;BME280;51639;47.828;35.038;2023-07-22T07:33:03;100296.88;;;32.28;51.48
65054;BME280;51639;47.828;35.038;2023-07-22T07:48:07;100269.34;;;32.26;51.30
65054;BME280;51639;47.828;35.038;2023-07-22T08:03:10;100263.19;;;32.28;49.99
65054;BME280;51639;47.828;35.038;2023-07-22T08:18:12;100268.44;;;32.79;47.61
65054;BME280;51639;47.828;35.038;2023-07-22T08:33:15;100268.13;;;33.25;45.14
65054;BME280;51639;47.828;35.038;2023-07-22T08:48:41;100237.78;;;33.23;43.45
65054;BME280;51639;47.828;35.038;2023-07-22T09:03:49;100232.50;;;33.94;42.82
65054;BME280;51639;47.828;35.038;2023-07-22T09:18:55;100220.28;;;34.87;40.35
65054;BME280;51639;47.828;35.038;2023-07-22T09:34:11;100220.44;;;36.01;37.63
65054;BME280;51639;47.828;35.038;2023-07-22T09:49:13;100189.53;;;36.03;37.96
65054;BME280;51639;47.828;35.038;2023-07-22T10:04:16;100178.50;;;36.07;38.55
65054;BME280;51639;47.828;35.038;2023-07-22T10:19:20;100171.22;;;35.95;37.54
65054;BME280;51639;47.828;35.038;2023-07-22T10:34:25;100157.13;;;34.46;37.40
65054;BME280;51639;47.828;35.038;2023-07-22T10:49:45;100164.22;;;34.03;38.44
65054;BME280;51639;47.828;35.038;2023-07-22T11:04:47;100163.84;;;33.90;38.71
65054;BME280;51639;47.828;35.038;2023-07-22T11:19:58;100156.88;;;33.31;40.05
65054;BME280;51639;47.828;35.038;2023-07-22T11:35:00;100151.22;;;32.89;41.28
65054;BME280;51639;47.828;35.038;2023-07-22T11:50:03;100158.28;;;32.98;42.45
65054;BME280;51639;47.828;35.038;2023-07-22T12:05:06;100124.16;;;33.43;40.91
65054;BME280;51639;47.828;35.038;2023-07-22T12:20:09;100123.66;;;33.54;39.61
65054;BME280;51639;47.828;35.038;2023-07-22T12:35:12;100101.47;;;33.76;38.41
65054;BME280;51639;47.828;35.038;2023-07-22T12:50:15;100091.66;;;34.11;37.24
65054;BME280;51639;47.828;35.038;2023-07-22T13:05:18;100076.94;;;34.30;36.95
65054;BME280;51639;47.828;35.038;2023-07-22T13:20:20;100074.81;;;33.77;36.83
65054;BME280;51639;47.828;35.038;2023-07-22T13:35:23;100067.06;;;33.50;37.06
65054;BME280;51639;47.828;35.038;2023-07-22T13:50:25;100041.19;;;33.10;39.43
65054;BME280;51639;47.828;35.038;2023-07-22T14:05:28;100023.91;;;32.22;40.60
65054;BME280;51639;47.828;35.038;2023-07-22T14:20:30;100009.78;;;32.04;40.32
65054;BME280;51639;47.828;35.038;2023-07-22T14:35:32;100011.06;;;31.71;42.42
65054;BME280;51639;47.828;35.038;2023-07-22T14:50:36;100012.97;;;31.61;43.71
65054;BME280;51639;47.828;35.038;2023-07-22T15:05:38;100008.13;;;31.53;44.64
65054;BME280;51639;47.828;35.038;2023-07-22T15:20:40;99994.88;;;31.46;45.77
65054;BME280;51639;47.828;35.038;2023-07-22T15:35:42;99959.25;;;31.24;45.80
65054;BME280;51639;47.828;35.038;2023-07-22T15:50:44;99930.16;;;30.97;46.63
65054;BME280;51639;47.828;35.038;2023-07-22T16:05:46;99929.97;;;30.95;48.11
65054;BME280;51639;47.828;35.038;2023-07-22T16:20:48;99937.69;;;30.86;48.15
65054;BME280;51639;47.828;35.038;2023-07-22T16:35:50;99932.50;;;30.60;48.12
65054;BME280;51639;47.828;35.038;2023-07-22T16:50:52;99914.94;;;30.44;48.35
65054;BME280;51639;47.828;35.038;2023-07-22T17:05:54;99919.41;;;30.25;48.46
65054;BME280;51639;47.828;35.038;2023-07-22T17:20:57;99929.50;;;30.12;49.40
65054;BME280;51639;47.828;35.038;2023-07-22T17:35:59;99933.88;;;29.77;50.62
65054;BME280;51639;47.828;35.038;2023-07-22T17:51:01;99931.22;;;29.57;54.75
65054;BME280;51639;47.828;35.038;2023-07-22T18:06:03;99946.88;;;29.60;53.70
65054;BME280;51639;47.828;35.038;2023-07-22T18:21:05;99931.66;;;29.32;54.47
65054;BME280;51639;47.828;35.038;2023-07-22T18:36:07;99919.91;;;29.26;55.96
65054;BME280;51639;47.828;35.038;2023-07-22T18:51:09;99938.44;;;29.08;55.93
65054;BME280;51639;47.828;35.038;2023-07-22T19:06:11;99946.59;;;28.99;55.91
65054;BME280;51639;47.828;35.038;2023-07-22T19:21:13;99939.69;;;28.71;56.96
65054;BME280;51639;47.828;35.038;2023-07-22T19:36:17;99929.72;;;28.55;58.38
65054;BME280;51639;47.828;35.038;2023-07-22T19:51:19;99911.97;;;28.45;59.54
65054;BME280;51639;47.828;35.038;2023-07-22T20:06:21;99913.69;;;28.27;63.22
65054;BME280;51639;47.828;35.038;2023-07-22T20:21:23;99876.59;;;27.98;66.24
65054;BME280;51639;47.828;35.038;2023-07-22T20:36:26;99870.66;;;28.02;69.58
65054;BME280;51639;47.828;35.038;2023-07-22T20:51:28;99835.91;;;28.03;72.68
65054;BME280;51639;47.828;35.038;2023-07-22T21:06:30;99839.34;;;28.16;77.69
65054;BME280;51639;47.828;35.038;2023-07-22T21:21:32;99856.78;;;28.09;78.02
65054;BME280;51639;47.828;35.038;2023-07-22T21:36:34;99829.72;;;27.97;80.40
65054;BME280;51639;47.828;35.038;2023-07-22T21:51:36;99828.72;;;27.87;81.46
65054;BME280;51639;47.828;35.038;2023-07-22T22:06:40;99812.72;;;27.66;84.41
65054;BME280;51639;47.828;35.038;2023-07-22T22:21:44;99817.53;;;27.66;85.89
65054;BME280;51639;47.828;35.038;2023-07-22T22:36:46;99801.59;;;27.53;88.53
65054;BME280;51639;47.828;35.038;2023-07-22T22:51:48;99796.16;;;27.47;89.53
65054;BME280;51639;47.828;35.038;2023-07-22T23:06:50;99786.91;;;27.52;91.00
65054;BME280;51639;47.828;35.038;2023-07-22T23:21:52;99785.66;;;27.40;94.10
65054;BME280;51639;47.828;35.038;2023-07-22T23:36:55;99780.09;;;27.40;95.78
65054;BME280;51639;47.828;35.038;2023-07-22T23:51:57;99772.00;;;27.29;99.75
